Carbonear, Canada
Current Conditions -  °F | °C
As of 7:00 PM on Monday 26 Jan 2015 (Local Time) from CYYT Reporting Station
Few Clouds Few Clouds  
Wind Chill:   Ceiling: Unl
Heat Index: 23°   Visibility: 15mi
Dew Point: 14°   Wind: 22mph
Humidity: 68%   Direction: 280°W
Pressure: 30.07"   Gusts: NA
Location:  47.73°N, 53.25°W
Report Text: CYYT 262200Z 28019KT 15SM FEW022 M05/M10 A3007 RMK SC2 SLP189
Loading
Personal Weather Stations






























Interactive Weather Map New forecast layout! Learn more

10-Day Weather Forecast

Advertisements
Track Severe Weather on mobile